sensor_id;sensor_type;location;lat;lon;timestamp;pressure;altitude;pressure_sealevel;temperature;humidity
51876;BME280;34054;52.100;5.116;2022-09-30T00:00:18;100617.06;;;10.55;79.23
51876;BME280;34054;52.100;5.116;2022-09-30T00:00:50;100615.44;;;10.54;79.17
51876;BME280;34054;52.100;5.116;2022-09-30T00:01:22;100594.44;;;10.39;79.15
51876;BME280;34054;52.100;5.116;2022-09-30T00:01:55;100617.63;;;10.52;79.13
51876;BME280;34054;52.100;5.116;2022-09-30T00:02:27;100610.25;;;10.47;79.24
51876;BME280;34054;52.100;5.116;2022-09-30T00:02:59;100614.06;;;10.51;79.08
51876;BME280;34054;52.100;5.116;2022-09-30T00:03:31;100613.25;;;10.51;79.30
51876;BME280;34054;52.100;5.116;2022-09-30T00:04:03;100606.19;;;10.50;79.10
51876;BME280;34054;52.100;5.116;2022-09-30T00:04:34;100609.41;;;10.47;79.09
51876;BME280;34054;52.100;5.116;2022-09-30T00:05:07;100616.78;;;10.51;79.23
51876;BME280;34054;52.100;5.116;2022-09-30T00:05:39;100614.06;;;10.51;79.12
51876;BME280;34054;52.100;5.116;2022-09-30T00:06:11;100618.69;;;10.51;79.09
51876;BME280;34054;52.100;5.116;2022-09-30T00:06:43;100619.75;;;10.50;78.93
51876;BME280;34054;52.100;5.116;2022-09-30T00:07:15;100622.22;;;10.51;78.98
51876;BME280;34054;52.100;5.116;2022-09-30T00:07:48;100615.13;;;10.50;78.99
51876;BME280;34054;52.100;5.116;2022-09-30T00:08:20;100613.28;;;10.56;79.06
51876;BME280;34054;52.100;5.116;2022-09-30T00:08:52;100606.22;;;10.55;78.66
51876;BME280;34054;52.100;5.116;2022-09-30T00:09:25;100613.06;;;10.63;78.52
51876;BME280;34054;52.100;5.116;2022-09-30T00:09:57;100611.97;;;10.64;78.49
51876;BME280;34054;52.100;5.116;2022-09-30T00:10:29;100611.44;;;10.67;78.33
51876;BME280;34054;52.100;5.116;2022-09-30T00:11:03;100613.06;;;10.68;78.14
51876;BME280;34054;52.100;5.116;2022-09-30T00:11:36;100613.88;;;10.63;78.13
51876;BME280;34054;52.100;5.116;2022-09-30T00:12:09;100607.91;;;10.61;78.20
51876;BME280;34054;52.100;5.116;2022-09-30T00:12:41;100609.22;;;10.59;78.38
51876;BME280;34054;52.100;5.116;2022-09-30T00:13:13;100613.56;;;10.60;78.28
51876;BME280;34054;52.100;5.116;2022-09-30T00:13:47;100603.50;;;10.55;78.32
51876;BME280;34054;52.100;5.116;2022-09-30T00:14:22;100606.47;;;10.53;78.35
51876;BME280;34054;52.100;5.116;2022-09-30T00:14:54;100602.63;;;10.49;78.31
51876;BME280;34054;52.100;5.116;2022-09-30T00:15:26;100608.38;;;10.53;78.39
51876;BME280;34054;52.100;5.116;2022-09-30T00:15:58;100606.47;;;10.53;78.49
51876;BME280;34054;52.100;5.116;2022-09-30T00:16:33;100608.63;;;10.51;78.44
51876;BME280;34054;52.100;5.116;2022-09-30T00:17:06;100606.69;;;10.47;78.50
51876;BME280;34054;52.100;5.116;2022-09-30T00:17:39;100591.19;;;10.37;78.73
51876;BME280;34054;52.100;5.116;2022-09-30T00:18:10;100613.50;;;10.49;78.79
51876;BME280;34054;52.100;5.116;2022-09-30T00:18:43;100611.88;;;10.48;78.68
51876;BME280;34054;52.100;5.116;2022-09-30T00:19:16;100606.16;;;10.45;78.64
51876;BME280;34054;52.100;5.116;2022-09-30T00:19:48;100604.78;;;10.42;78.80
51876;BME280;34054;52.100;5.116;2022-09-30T00:20:19;100614.56;;;10.43;78.85
51876;BME280;34054;52.100;5.116;2022-09-30T00:20:52;100614.56;;;10.43;78.85
51876;BME280;34054;52.100;5.116;2022-09-30T00:21:24;100604.47;;;10.39;79.00
51876;BME280;34054;52.100;5.116;2022-09-30T00:21:56;100616.69;;;10.41;79.06
51876;BME280;34054;52.100;5.116;2022-09-30T00:22:29;100611.53;;;10.40;79.07
51876;BME280;34054;52.100;5.116;2022-09-30T00:23:02;100609.09;;;10.38;78.92
51876;BME280;34054;52.100;5.116;2022-09-30T00:23:33;100601.16;;;10.36;78.84
51876;BME280;34054;52.100;5.116;2022-09-30T00:24:08;100618.34;;;10.42;78.85
51876;BME280;34054;52.100;5.116;2022-09-30T00:24:39;100612.91;;;10.42;78.80
51876;BME280;34054;52.100;5.116;2022-09-30T00:25:11;100599.34;;;10.42;78.76
51876;BME280;34054;52.100;5.116;2022-09-30T00:25:43;100609.09;;;10.38;78.77
51876;BME280;34054;52.100;5.116;2022-09-30T00:26:17;100605.03;;;10.41;78.70
51876;BME280;34054;52.100;5.116;2022-09-30T00:26:51;100613.47;;;10.44;78.81
51876;BME280;34054;52.100;5.116;2022-09-30T00:27:23;100608.06;;;10.49;78.57
51876;BME280;34054;52.100;5.116;2022-09-30T00:27:55;100591.75;;;10.39;78.24
51876;BME280;34054;52.100;5.116;2022-09-30T00:28:28;100608.63;;;10.51;78.02
51876;BME280;34054;52.100;5.116;2022-09-30T00:29:00;100604.81;;;10.47;77.96
51876;BME280;34054;52.100;5.116;2022-09-30T00:29:34;100607.25;;;10.49;77.94
51876;BME280;34054;52.100;5.116;2022-09-30T00:30:06;100596.13;;;10.45;77.83
51876;BME280;34054;52.100;5.116;2022-09-30T00:30:39;100609.72;;;10.50;77.85
51876;BME280;34054;52.100;5.116;2022-09-30T00:31:13;100596.91;;;10.46;77.59
51876;BME280;34054;52.100;5.116;2022-09-30T00:31:46;100606.75;;;10.52;77.67
51876;BME280;34054;52.100;5.116;2022-09-30T00:32:18;100614.06;;;10.51;77.60
51876;BME280;34054;52.100;5.116;2022-09-30T00:32:51;100613.22;;;10.46;77.66
51876;BME280;34054;52.100;5.116;2022-09-30T00:33:22;100614.03;;;10.46;77.67
51876;BME280;34054;52.100;5.116;2022-09-30T00:33:54;100613.47;;;10.39;77.80
51876;BME280;34054;52.100;5.116;2022-09-30T00:34:38;100614.25;;;10.40;77.96
51876;BME280;34054;52.100;5.116;2022-09-30T00:35:10;100567.91;;;10.14;77.92
51876;BME280;34054;52.100;5.116;2022-09-30T00:35:43;100622.75;;;10.48;77.79
51876;BME280;34054;52.100;5.116;2022-09-30T00:36:14;100614.91;;;10.52;77.71
51876;BME280;34054;52.100;5.116;2022-09-30T00:36:49;100626.84;;;10.51;77.53
51876;BME280;34054;52.100;5.116;2022-09-30T00:37:23;100612.41;;;10.45;77.60
51876;BME280;34054;52.100;5.116;2022-09-30T00:37:54;100619.19;;;10.43;77.71
51876;BME280;34054;52.100;5.116;2022-09-30T00:38:27;100616.16;;;10.39;77.67
51876;BME280;34054;52.100;5.116;2022-09-30T00:39:01;100617.53;;;10.42;77.96
51876;BME280;34054;52.100;5.116;2022-09-30T00:39:34;100621.63;;;10.44;77.86
51876;BME280;34054;52.100;5.116;2022-09-30T00:40:08;100624.84;;;10.41;78.08
51876;BME280;34054;52.100;5.116;2022-09-30T00:40:41;100625.97;;;10.40;78.18
51876;BME280;34054;52.100;5.116;2022-09-30T00:41:13;100607.06;;;10.23;78.11
51876;BME280;34054;52.100;5.116;2022-09-30T00:41:47;100624.00;;;10.35;78.27
51876;BME280;34054;52.100;5.116;2022-09-30T00:42:22;100624.78;;;10.31;78.40
51876;BME280;34054;52.100;5.116;2022-09-30T00:42:57;100623.94;;;10.30;78.59
51876;BME280;34054;52.100;5.116;2022-09-30T00:43:40;100629.38;;;10.30;78.53
51876;BME280;34054;52.100;5.116;2022-09-30T00:44:46;100628.00;;;10.28;78.75
51876;BME280;34054;52.100;5.116;2022-09-30T00:45:24;100622.00;;;10.26;78.76
51876;BME280;34054;52.100;5.116;2022-09-30T00:45:58;100624.16;;;10.24;78.70
51876;BME280;34054;52.100;5.116;2022-09-30T00:46:34;100616.00;;;10.24;78.81
51876;BME280;34054;52.100;5.116;2022-09-30T00:48:16;100627.44;;;10.26;78.72
51876;BME280;34054;52.100;5.116;2022-09-30T00:48:52;100614.91;;;10.19;78.81
51876;BME280;34054;52.100;5.116;2022-09-30T00:49:27;100613.84;;;10.20;78.74
51876;BME280;34054;52.100;5.116;2022-09-30T00:50:03;100623.63;;;10.21;78.98
51876;BME280;34054;52.100;5.116;2022-09-30T00:50:42;100618.41;;;10.20;78.88
51876;BME280;34054;52.100;5.116;2022-09-30T00:51:25;100617.91;;;10.23;79.02
51876;BME280;34054;52.100;5.116;2022-09-30T00:52:00;100615.19;;;10.18;79.06
51876;BME280;34054;52.100;5.116;2022-09-30T00:52:33;100618.41;;;10.20;79.28
51876;BME280;34054;52.100;5.116;2022-09-30T00:53:09;100619.81;;;10.23;79.32
51876;BME280;34054;52.100;5.116;2022-09-30T00:53:47;100625.25;;;10.23;79.19
51876;BME280;34054;52.100;5.116;2022-09-30T00:54:25;100622.78;;;10.21;79.27
51876;BME280;34054;52.100;5.116;2022-09-30T00:55:02;100623.06;;;10.25;79.26
51876;BME280;34054;52.100;5.116;2022-09-30T00:55:44;100615.50;;;10.27;79.13
51876;BME280;34054;52.100;5.116;2022-09-30T00:56:23;100621.50;;;10.29;78.92
51876;BME280;34054;52.100;5.116;2022-09-30T00:57:02;100590.97;;;10.11;78.90
51876;BME280;34054;52.100;5.116;2022-09-30T00:57:35;100606.25;;;10.23;78.73
51876;BME280;34054;52.100;5.116;2022-09-30T00:58:08;100613.38;;;10.34;78.42
51876;BME280;34054;52.100;5.116;2022-09-30T00:58:46;100620.44;;;10.35;78.58
51876;BME280;34054;52.100;5.116;2022-09-30T00:59:24;100619.34;;;10.31;78.82
51876;BME280;34054;52.100;5.116;2022-09-30T01:00:01;100618.22;;;10.27;78.92
51876;BME280;34054;52.100;5.116;2022-09-30T01:00:35;100613.63;;;10.27;78.99
51876;BME280;34054;52.100;5.116;2022-09-30T01:01:07;100615.22;;;10.28;79.26
51876;BME280;34054;52.100;5.116;2022-09-30T01:01:41;100606.56;;;10.26;79.06
51876;BME280;34054;52.100;5.116;2022-09-30T01:02:13;100542.72;;;9.86;79.18
51876;BME280;34054;52.100;5.116;2022-09-30T01:02:45;100615.00;;;10.35;79.04
51876;BME280;34054;52.100;5.116;2022-09-30T01:03:19;100613.94;;;10.36;79.03
51876;BME280;34054;52.100;5.116;2022-09-30T01:03:58;100606.28;;;10.28;79.17
51876;BME280;34054;52.100;5.116;2022-09-30T01:04:33;100615.00;;;10.30;79.37
51876;BME280;34054;52.100;5.116;2022-09-30T01:05:06;100607.09;;;10.28;79.41
51876;BME280;34054;52.100;5.116;2022-09-30T01:05:40;100606.28;;;10.28;79.41
51876;BME280;34054;52.100;5.116;2022-09-30T01:06:14;100610.66;;;10.34;79.39
51876;BME280;34054;52.100;5.116;2022-09-30T01:06:46;100609.84;;;10.33;79.38
51876;BME280;34054;52.100;5.116;2022-09-30T01:07:18;100606.56;;;10.31;79.43
51876;BME280;34054;52.100;5.116;2022-09-30T01:07:51;100609.03;;;10.33;79.53
51876;BME280;34054;52.100;5.116;2022-09-30T01:08:24;100611.19;;;10.31;79.61
51876;BME280;34054;52.100;5.116;2022-09-30T01:08:59;100596.22;;;10.28;79.57
51876;BME280;34054;52.100;5.116;2022-09-30T01:09:33;100612.00;;;10.31;79.65
51876;BME280;34054;52.100;5.116;2022-09-30T01:10:07;100616.34;;;10.32;79.65
51876;BME280;34054;52.100;5.116;2022-09-30T01:10:39;100584.75;;;10.16;79.59
51876;BME280;34054;52.100;5.116;2022-09-30T01:11:12;100603.56;;;10.28;79.67
51876;BME280;34054;52.100;5.116;2022-09-30T01:11:45;100618.56;;;10.35;79.67
51876;BME280;34054;52.100;5.116;2022-09-30T01:12:20;100611.72;;;10.33;79.60
51876;BME280;34054;52.100;5.116;2022-09-30T01:12:56;100609.00;;;10.28;79.80
51876;BME280;34054;52.100;5.116;2022-09-30T01:13:29;100618.28;;;10.32;79.71
51876;BME280;34054;52.100;5.116;2022-09-30T01:14:08;100617.44;;;10.31;79.82
51876;BME280;34054;52.100;5.116;2022-09-30T01:14:46;100614.72;;;10.31;79.73
51876;BME280;34054;52.100;5.116;2022-09-30T01:15:33;100609.56;;;10.30;79.76
51876;BME280;34054;52.100;5.116;2022-09-30T01:16:28;100603.84;;;10.31;79.78
51876;BME280;34054;52.100;5.116;2022-09-30T01:17:13;100605.22;;;10.34;79.76
51876;BME280;34054;52.100;5.116;2022-09-30T01:17:54;100603.59;;;10.33;79.83
51876;BME280;34054;52.100;5.116;2022-09-30T01:18:43;100534.66;;;9.91;79.82
51876;BME280;34054;52.100;5.116;2022-09-30T01:19:40;100601.53;;;10.40;79.72
51876;BME280;34054;52.100;5.116;2022-09-30T01:21:10;100606.59;;;10.36;79.32
51876;BME280;34054;52.100;5.116;2022-09-30T01:22:20;100611.53;;;10.40;79.54
51876;BME280;34054;52.100;5.116;2022-09-30T01:24:39;100610.38;;;10.30;80.33
51876;BME280;34054;52.100;5.116;2022-09-30T01:25:50;100618.22;;;10.27;80.48
51876;BME280;34054;52.100;5.116;2022-09-30T01:26:49;100614.94;;;10.25;80.55
51876;BME280;34054;52.100;5.116;2022-09-30T01:27:47;100575.94;;;9.98;80.74
51876;BME280;34054;52.100;5.116;2022-09-30T01:30:18;100618.50;;;10.30;80.80
51876;BME280;34054;52.100;5.116;2022-09-30T01:32:11;100621.63;;;10.44;79.85
51876;BME280;34054;52.100;5.116;2022-09-30T01:33:13;100611.06;;;10.48;79.77
51876;BME280;34054;52.100;5.116;2022-09-30T01:33:57;100623.78;;;10.42;80.12
51876;BME280;34054;52.100;5.116;2022-09-30T01:34:40;100606.28;;;10.28;81.15
51876;BME280;34054;52.100;5.116;2022-09-30T01:35:29;100618.22;;;10.27;82.06
51876;BME280;34054;52.100;5.116;2022-09-30T01:36:19;100608.41;;;10.20;82.69
51876;BME280;34054;52.100;5.116;2022-09-30T01:37:17;100605.47;;;10.27;82.74
51876;BME280;34054;52.100;5.116;2022-09-30T01:38:00;100620.81;;;10.44;82.75
51876;BME280;34054;52.100;5.116;2022-09-30T01:38:46;100628.69;;;10.45;82.82
51876;BME280;34054;52.100;5.116;2022-09-30T01:39:30;100625.97;;;10.45;82.78
51876;BME280;34054;52.100;5.116;2022-09-30T01:40:15;100622.75;;;10.48;82.98
51876;BME280;34054;52.100;5.116;2022-09-30T01:41:00;100619.25;;;10.53;82.77
51876;BME280;34054;52.100;5.116;2022-09-30T01:41:44;100604.53;;;10.44;82.88
51876;BME280;34054;52.100;5.116;2022-09-30T01:42:33;100609.75;;;10.56;82.44
51876;BME280;34054;52.100;5.116;2022-09-30T01:43:12;100617.38;;;10.59;82.57
51876;BME280;34054;52.100;5.116;2022-09-30T01:44:00;100622.56;;;10.65;82.66
51876;BME280;34054;52.100;5.116;2022-09-30T01:44:46;100607.03;;;10.56;82.87
51876;BME280;34054;52.100;5.116;2022-09-30T01:45:31;100619.34;;;10.74;82.87
51876;BME280;34054;52.100;5.116;2022-09-30T01:46:15;100590.22;;;10.59;82.57
51876;BME280;34054;52.100;5.116;2022-09-30T01:47:00;100619.09;;;10.75;82.79
51876;BME280;34054;52.100;5.116;2022-09-30T01:47:42;100622.63;;;10.76;82.85
51876;BME280;34054;52.100;5.116;2022-09-30T01:48:22;100615.84;;;10.73;82.82
51876;BME280;34054;52.100;5.116;2022-09-30T01:49:07;100625.38;;;10.81;82.93
51876;BME280;34054;52.100;5.116;2022-09-30T01:49:51;100627.56;;;10.84;82.59
51876;BME280;34054;52.100;5.116;2022-09-30T01:50:31;100618.59;;;10.83;82.55
51876;BME280;34054;52.100;5.116;2022-09-30T01:51:19;100627.28;;;10.86;82.49
51876;BME280;34054;52.100;5.116;2022-09-30T01:52:02;100590.81;;;10.66;82.58
51876;BME280;34054;52.100;5.116;2022-09-30T01:52:45;100627.34;;;10.96;82.34
51876;BME280;34054;52.100;5.116;2022-09-30T01:53:26;100631.16;;;10.95;82.06
51876;BME280;34054;52.100;5.116;2022-09-30T01:54:07;100618.34;;;10.90;82.22
51876;BME280;34054;52.100;5.116;2022-09-30T01:54:51;100625.16;;;10.93;82.13
51876;BME280;34054;52.100;5.116;2022-09-30T01:55:33;100626.25;;;10.92;82.14
51876;BME280;34054;52.100;5.116;2022-09-30T01:56:16;100622.75;;;11.02;82.11
51876;BME280;34054;52.100;5.116;2022-09-30T01:56:54;100628.47;;;11.00;82.05
51876;BME280;34054;52.100;5.116;2022-09-30T01:57:38;100627.94;;;11.03;81.94
51876;BME280;34054;52.100;5.116;2022-09-30T01:58:21;100624.13;;;11.04;81.90
51876;BME280;34054;52.100;5.116;2022-09-30T01:59:04;100625.50;;;11.07;81.69
51876;BME280;34054;52.100;5.116;2022-09-30T01:59:44;100629.84;;;11.08;81.59
51876;BME280;34054;52.100;5.116;2022-09-30T02:00:20;100625.25;;;11.08;81.70
51876;BME280;34054;52.100;5.116;2022-09-30T02:00:58;100623.31;;;11.04;81.65
51876;BME280;34054;52.100;5.116;2022-09-30T02:01:37;100627.97;;;11.13;81.63
51876;BME280;34054;52.100;5.116;2022-09-30T02:02:17;100628.53;;;11.21;80.98
51876;BME280;34054;52.100;5.116;2022-09-30T02:02:55;100627.16;;;11.13;80.50
51876;BME280;34054;52.100;5.116;2022-09-30T02:03:35;100614.34;;;11.03;80.63
51876;BME280;34054;52.100;5.116;2022-09-30T02:04:13;100629.28;;;11.06;81.13
51876;BME280;34054;52.100;5.116;2022-09-30T02:04:50;100631.19;;;11.00;81.53
51876;BME280;34054;52.100;5.116;2022-09-30T02:05:33;100627.88;;;10.93;81.62
51876;BME280;34054;52.100;5.116;2022-09-30T02:06:14;100629.28;;;11.00;81.58
51876;BME280;34054;52.100;5.116;2022-09-30T02:06:54;100626.00;;;10.98;81.75
51876;BME280;34054;52.100;5.116;2022-09-30T02:07:35;100629.50;;;10.94;81.74
51876;BME280;34054;52.100;5.116;2022-09-30T02:08:15;100606.41;;;10.86;81.74
51876;BME280;34054;52.100;5.116;2022-09-30T02:08:54;100620.03;;;11.02;81.46
51876;BME280;34054;52.100;5.116;2022-09-30T02:09:37;100626.28;;;11.02;81.33
51876;BME280;34054;52.100;5.116;2022-09-30T02:10:16;100633.34;;;11.03;81.42
51876;BME280;34054;52.100;5.116;2022-09-30T02:10:57;100627.13;;;11.03;81.40
51876;BME280;34054;52.100;5.116;2022-09-30T02:11:34;100618.41;;;11.00;81.30
51876;BME280;34054;52.100;5.116;2022-09-30T02:12:11;100628.47;;;11.00;81.33
51876;BME280;34054;52.100;5.116;2022-09-30T02:13:01;100629.84;;;11.03;81.30
51876;BME280;34054;52.100;5.116;2022-09-30T02:13:43;100607.75;;;10.89;81.30
51876;BME280;34054;52.100;5.116;2022-09-30T02:14:25;100624.41;;;11.03;81.04
51876;BME280;34054;52.100;5.116;2022-09-30T02:15:08;100626.03;;;11.04;81.09
51876;BME280;34054;52.100;5.116;2022-09-30T02:15:47;100617.59;;;11.00;81.08
51876;BME280;34054;52.100;5.116;2022-09-30T02:16:28;100623.06;;;11.10;80.75
51876;BME280;34054;52.100;5.116;2022-09-30T02:17:09;100618.41;;;11.06;80.60
51876;BME280;34054;52.100;5.116;2022-09-30T02:17:49;100627.94;;;11.03;80.53
51876;BME280;34054;52.100;5.116;2022-09-30T02:18:31;100615.41;;;11.02;80.50
51876;BME280;34054;52.100;5.116;2022-09-30T02:19:13;100625.19;;;10.98;80.42
51876;BME280;34054;52.100;5.116;2022-09-30T02:19:53;100618.13;;;10.97;80.54
51876;BME280;34054;52.100;5.116;2022-09-30T02:20:32;100626.84;;;11.04;80.28
51876;BME280;34054;52.100;5.116;2022-09-30T02:21:10;100614.88;;;11.00;80.26
51876;BME280;34054;52.100;5.116;2022-09-30T02:21:52;100618.13;;;10.97;80.26
51876;BME280;34054;52.100;5.116;2022-09-30T02:22:30;100628.44;;;10.95;80.44
51876;BME280;34054;52.100;5.116;2022-09-30T02:23:16;100619.72;;;10.93;80.21
51876;BME280;34054;52.100;5.116;2022-09-30T02:23:58;100622.72;;;10.91;80.33
51876;BME280;34054;52.100;5.116;2022-09-30T02:24:35;100626.78;;;10.89;80.48
51876;BME280;34054;52.100;5.116;2022-09-30T02:25:12;100611.78;;;10.81;80.45
51876;BME280;34054;52.100;5.116;2022-09-30T02:25:54;100618.59;;;10.83;80.19
51876;BME280;34054;52.100;5.116;2022-09-30T02:26:37;100612.06;;;10.79;80.30
51876;BME280;34054;52.100;5.116;2022-09-30T02:27:17;100617.50;;;10.79;80.41
51876;BME280;34054;52.100;5.116;2022-09-30T02:27:55;100588.59;;;10.58;80.54
51876;BME280;34054;52.100;5.116;2022-09-30T02:28:31;100621.81;;;10.75;80.52
51876;BME280;34054;52.100;5.116;2022-09-30T02:29:08;100618.00;;;10.76;80.40
51876;BME280;34054;52.100;5.116;2022-09-30T02:29:48;100622.91;;;10.74;80.27
51876;BME280;34054;52.100;5.116;2022-09-30T02:30:25;100626.44;;;10.75;80.33
51876;BME280;34054;52.100;5.116;2022-09-30T02:31:01;100618.28;;;10.75;80.21
51876;BME280;34054;52.100;5.116;2022-09-30T02:31:38;100614.19;;;10.72;80.24
51876;BME280;34054;52.100;5.116;2022-09-30T02:32:21;100580.63;;;10.46;80.15
51876;BME280;34054;52.100;5.116;2022-09-30T02:32:58;100619.88;;;10.71;80.29
51876;BME280;34054;52.100;5.116;2022-09-30T02:33:37;100621.78;;;10.70;80.27
51876;BME280;34054;52.100;5.116;2022-09-30T02:34:15;100620.97;;;10.70;80.34
51876;BME280;34054;52.100;5.116;2022-09-30T02:34:54;100622.59;;;10.71;80.40
51876;BME280;34054;52.100;5.116;2022-09-30T02:35:34;100617.97;;;10.66;80.31
51876;BME280;34054;52.100;5.116;2022-09-30T02:36:15;100623.41;;;10.66;80.17
51876;BME280;34054;52.100;5.116;2022-09-30T02:36:59;100611.41;;;10.62;80.36
51876;BME280;34054;52.100;5.116;2022-09-30T02:37:41;100620.69;;;10.66;80.21
51876;BME280;34054;52.100;5.116;2022-09-30T02:38:20;100626.13;;;10.66;80.23
51876;BME280;34054;52.100;5.116;2022-09-30T02:39:00;100623.09;;;10.62;80.19
51876;BME280;34054;52.100;5.116;2022-09-30T02:39:40;100613.84;;;10.58;80.17
51876;BME280;34054;52.100;5.116;2022-09-30T02:40:21;100624.44;;;10.60;80.34
51876;BME280;34054;52.100;5.116;2022-09-30T02:41:00;100607.56;;;10.52;80.24
51876;BME280;34054;52.100;5.116;2022-09-30T02:41:39;100616.25;;;10.55;80.24
51876;BME280;34054;52.100;5.116;2022-09-30T02:42:17;100627.13;;;10.55;80.16
51876;BME280;34054;52.100;5.116;2022-09-30T02:42:52;100606.97;;;10.45;80.18
51876;BME280;34054;52.100;5.116;2022-09-30T02:43:24;100616.78;;;10.51;80.10
51876;BME280;34054;52.100;5.116;2022-09-30T02:43:59;100608.56;;;10.41;80.09
51876;BME280;34054;52.100;5.116;2022-09-30T02:44:33;100618.13;;;10.49;80.21
51876;BME280;34054;52.100;5.116;2022-09-30T02:45:09;100625.47;;;10.48;80.16
51876;BME280;34054;52.100;5.116;2022-09-30T02:45:50;100623.56;;;10.49;80.09
51876;BME280;34054;52.100;5.116;2022-09-30T02:46:40;100626.00;;;10.50;80.01
51876;BME280;34054;52.100;5.116;2022-09-30T02:47:28;100618.72;;;10.56;79.77
51876;BME280;34054;52.100;5.116;2022-09-30T02:48:09;100620.88;;;10.54;79.49
51876;BME280;34054;52.100;5.116;2022-09-30T02:48:57;100615.97;;;10.51;79.40
51876;BME280;34054;52.100;5.116;2022-09-30T02:49:38;100618.13;;;10.49;79.32
51876;BME280;34054;52.100;5.116;2022-09-30T02:50:22;100612.28;;;10.35;79.48
51876;BME280;34054;52.100;5.116;2022-09-30T02:51:03;100620.25;;;10.42;79.43
51876;BME280;34054;52.100;5.116;2022-09-30T02:51:53;100620.53;;;10.40;79.50
51876;BME280;34054;52.100;5.116;2022-09-30T02:52:46;100609.84;;;10.33;79.43
51876;BME280;34054;52.100;5.116;2022-09-30T02:53:34;100611.81;;;10.38;79.40
51876;BME280;34054;52.100;5.116;2022-09-30T02:54:18;100610.19;;;10.37;79.27
51876;BME280;34054;52.100;5.116;2022-09-30T02:55:06;100621.03;;;10.37;79.37
51876;BME280;34054;52.100;5.116;2022-09-30T02:56:08;100618.56;;;10.35;79.44
51876;BME280;34054;52.100;5.116;2022-09-30T02:56:52;100604.63;;;10.27;79.48
51876;BME280;34054;52.100;5.116;2022-09-30T02:57:36;100600.25;;;10.20;79.52
51876;BME280;34054;52.100;5.116;2022-09-30T02:58:15;100622.28;;;10.29;79.50
51876;BME280;34054;52.100;5.116;2022-09-30T02:58:50;100628.00;;;10.28;79.42
51876;BME280;34054;52.100;5.116;2022-09-30T02:59:26;100596.38;;;10.11;79.56
51876;BME280;34054;52.100;5.116;2022-09-30T02:59:58;100630.72;;;10.28;79.62
51876;BME280;34054;52.100;5.116;2022-09-30T03:00:31;100620.94;;;10.27;79.67
51876;BME280;34054;52.100;5.116;2022-09-30T03:01:04;100629.06;;;10.27;79.68
51876;BME280;34054;52.100;5.116;2022-09-30T03:01:40;100628.00;;;10.28;79.73
51876;BME280;34054;52.100;5.116;2022-09-30T03:02:14;100623.91;;;10.25;79.77
51876;BME280;34054;52.100;5.116;2022-09-30T03:02:49;100606.97;;;10.13;79.80
51876;BME280;34054;52.100;5.116;2022-09-30T03:03:27;100619.19;;;10.15;79.39
51876;BME280;34054;52.100;5.116;2022-09-30T03:04:05;100621.44;;;10.24;79.73
51876;BME280;34054;52.100;5.116;2022-09-30T03:04:39;100625.78;;;10.25;79.75
51876;BME280;34054;52.100;5.116;2022-09-30T03:05:14;100611.13;;;10.20;79.47
51876;BME280;34054;52.100;5.116;2022-09-30T03:05:48;100623.63;;;10.21;79.60
51876;BME280;34054;52.100;5.116;2022-09-30T03:06:21;100617.88;;;10.18;79.75
51876;BME280;34054;52.100;5.116;2022-09-30T03:06:54;100618.41;;;10.15;79.60
51876;BME280;34054;52.100;5.116;2022-09-30T03:07:26;100626.56;;;10.20;79.71
51876;BME280;34054;52.100;5.116;2022-09-30T03:07:59;100622.47;;;10.17;79.67
51876;BME280;34054;52.100;5.116;2022-09-30T03:08:31;100624.69;;;10.20;79.63
51876;BME280;34054;52.100;5.116;2022-09-30T03:09:04;100622.47;;;10.17;79.57
51876;BME280;34054;52.100;5.116;2022-09-30T03:09:37;100602.28;;;10.03;79.69
51876;BME280;34054;52.100;5.116;2022-09-30T03:10:13;100621.38;;;10.13;79.67
51876;BME280;34054;52.100;5.116;2022-09-30T03:10:49;100621.09;;;10.15;79.83
51876;BME280;34054;52.100;5.116;2022-09-30T03:11:24;100620.31;;;10.14;79.76
51876;BME280;34054;52.100;5.116;2022-09-30T03:12:07;100625.72;;;10.14;79.74
51876;BME280;34054;52.100;5.116;2022-09-30T03:12:56;100621.09;;;10.10;79.88
51876;BME280;34054;52.100;5.116;2022-09-30T03:15:35;100620.78;;;10.06;79.82
51876;BME280;34054;52.100;5.116;2022-09-30T03:16:18;100620.16;;;9.99;79.89
51876;BME280;34054;52.100;5.116;2022-09-30T03:17:14;100624.88;;;10.09;79.75
51876;BME280;34054;52.100;5.116;2022-09-30T03:18:16;100631.38;;;10.08;79.47
51876;BME280;34054;52.100;5.116;2022-09-30T03:19:19;100631.31;;;10.02;79.70
51876;BME280;34054;52.100;5.116;2022-09-30T03:20:18;100626.41;;;9.99;79.66
51876;BME280;34054;52.100;5.116;2022-09-30T03:21:29;100625.66;;;10.09;79.28
51876;BME280;34054;52.100;5.116;2022-09-30T03:22:32;100632.16;;;10.08;79.22
51876;BME280;34054;52.100;5.116;2022-09-30T03:23:38;100637.88;;;10.06;79.21
51876;BME280;34054;52.100;5.116;2022-09-30T03:24:44;100641.84;;;9.99;79.25
51876;BME280;34054;52.100;5.116;2022-09-30T03:25:42;100638.38;;;10.03;79.34
51876;BME280;34054;52.100;5.116;2022-09-30T03:26:29;100640.78;;;10.00;79.19
51876;BME280;34054;52.100;5.116;2022-09-30T03:27:14;100645.59;;;9.93;79.31
51876;BME280;34054;52.100;5.116;2022-09-30T03:28:06;100649.09;;;9.88;79.52
51876;BME280;34054;52.100;5.116;2022-09-30T03:28:53;100641.50;;;9.85;79.68
51876;BME280;34054;52.100;5.116;2022-09-30T03:29:44;100653.44;;;9.89;79.79
51876;BME280;34054;52.100;5.116;2022-09-30T03:30:23;100645.56;;;9.87;79.61
51876;BME280;34054;52.100;5.116;2022-09-30T03:31:03;100651.31;;;9.91;79.61
51876;BME280;34054;52.100;5.116;2022-09-30T03:31:47;100659.44;;;9.91;79.66
51876;BME280;34054;52.100;5.116;2022-09-30T03:32:51;100658.06;;;9.88;79.69
51876;BME280;34054;52.100;5.116;2022-09-30T03:33:40;100643.31;;;9.79;79.74
51876;BME280;34054;52.100;5.116;2022-09-30T03:34:23;100657.19;;;9.83;79.70